createdAt,value
2018-02-04T00:00:15.623Z,1.10
2018-02-04T00:02:44.095Z,1.20
2018-02-04T00:05:12.512Z,1.20
2018-02-04T00:07:40.214Z,1.20
2018-02-04T00:10:09.374Z,1.00
2018-02-04T00:12:37.066Z,1.00
2018-02-04T00:15:04.738Z,0.90
2018-02-04T00:17:33.198Z,0.80
2018-02-04T00:22:38.878Z,0.80
2018-02-04T00:25:07.340Z,0.90
2018-02-04T00:27:35.081Z,0.80
2018-02-04T00:30:02.738Z,1.00
2018-02-04T00:32:30.445Z,1.10
2018-02-04T00:34:58.902Z,1.10
2018-02-04T00:37:26.570Z,1.10
2018-02-04T00:39:55.034Z,0.90
2018-02-04T00:42:22.727Z,0.80
2018-02-04T00:44:51.186Z,0.80
2018-02-04T00:47:18.842Z,0.80
2018-02-04T00:49:46.538Z,0.80
2018-02-04T00:52:14.195Z,0.90
2018-02-04T00:54:41.891Z,0.80
2018-02-04T00:57:10.314Z,0.90
2018-02-04T00:59:38.778Z,0.90
2018-02-04T01:02:06.431Z,0.80
2018-02-04T01:04:34.138Z,0.80
2018-02-04T01:07:01.796Z,0.80
2018-02-04T01:09:29.519Z,0.90
2018-02-04T01:11:57.997Z,0.90
2018-02-04T01:14:25.695Z,0.90
2018-02-04T01:16:53.350Z,0.90
2018-02-04T01:19:21.050Z,1.00
2018-02-04T01:21:48.719Z,1.10
2018-02-04T01:24:16.414Z,1.00
2018-02-04T01:26:44.846Z,1.00
2018-02-04T01:29:12.554Z,1.00
2018-02-04T01:31:40.977Z,1.00
2018-02-04T01:34:08.683Z,0.90
2018-02-04T01:36:37.113Z,0.90
2018-02-04T01:39:04.850Z,0.90
2018-02-04T01:41:32.514Z,1.00
2018-02-04T01:44:00.214Z,0.90
2018-02-04T01:46:27.886Z,0.80
2018-02-04T01:48:55.586Z,0.90
2018-02-04T01:51:23.251Z,1.00
2018-02-04T01:53:50.966Z,1.10
2018-02-04T01:56:18.622Z,1.40
2018-02-04T01:58:47.094Z,1.40
2018-02-04T02:01:14.772Z,1.40
2018-02-04T02:03:43.231Z,1.50
2018-02-04T02:06:10.898Z,1.50
2018-02-04T02:08:39.391Z,1.20
2018-02-04T02:11:07.822Z,1.10
2018-02-04T02:13:35.537Z,1.10
2018-02-04T02:16:03.987Z,1.00
2018-02-04T02:18:31.682Z,1.00
2018-02-04T02:20:59.346Z,1.00
2018-02-04T02:23:27.057Z,1.00
2018-02-04T02:25:54.726Z,1.00
2018-02-04T02:28:22.434Z,1.00
2018-02-04T02:30:50.101Z,1.00
2018-02-04T02:33:17.811Z,1.00
2018-02-04T02:35:45.470Z,1.10
2018-02-04T02:38:13.131Z,1.10
2018-02-04T02:40:41.672Z,1.20
2018-02-04T02:43:09.336Z,1.10
2018-02-04T02:45:37.036Z,1.50
2018-02-04T02:48:05.491Z,1.30
2018-02-04T02:50:33.203Z,1.30
2018-02-04T02:53:00.906Z,1.30
2018-02-04T02:55:28.618Z,1.30
2018-02-04T02:57:56.284Z,1.30
2018-02-04T03:00:23.996Z,1.20
2018-02-04T03:02:51.666Z,1.10
2018-02-04T03:05:19.393Z,1.00
2018-02-04T03:07:47.053Z,1.10
2018-02-04T03:10:14.758Z,1.20
2018-02-04T03:12:43.171Z,1.50
2018-02-04T03:15:10.926Z,1.50
2018-02-04T03:17:38.580Z,1.60
2018-02-04T03:20:06.282Z,1.40
2018-02-04T03:22:33.946Z,1.30
2018-02-04T03:25:01.695Z,1.20
2018-02-04T03:27:29.354Z,1.30
2018-02-04T03:29:57.122Z,1.40
2018-02-04T03:32:24.780Z,1.50
2018-02-04T03:34:52.471Z,1.40
2018-02-04T03:37:20.877Z,1.40
2018-02-04T03:39:48.579Z,1.30
2018-02-04T03:42:16.246Z,1.30
2018-02-04T03:44:43.966Z,1.30
2018-02-04T03:47:11.618Z,1.30
2018-02-04T03:49:39.310Z,1.20
2018-02-04T03:52:06.965Z,1.20
2018-02-04T03:54:34.657Z,1.30
2018-02-04T03:57:03.078Z,1.40
2018-02-04T03:59:30.771Z,1.30
2018-02-04T04:01:58.425Z,1.40
2018-02-04T04:04:26.123Z,1.20
2018-02-04T04:06:54.546Z,1.50
2018-02-04T04:09:22.238Z,1.50
2018-02-04T04:11:49.894Z,1.70
2018-02-04T04:14:17.603Z,1.80
2018-02-04T04:16:45.260Z,1.70
2018-02-04T04:19:12.998Z,1.50
2018-02-04T04:21:41.439Z,1.20
2018-02-04T04:24:09.938Z,1.20
2018-02-04T04:26:37.590Z,1.10
2018-02-04T04:29:05.290Z,1.20
2018-02-04T04:31:32.955Z,1.20
2018-02-04T04:34:00.655Z,1.10
2018-02-04T04:36:28.311Z,1.10
2018-02-04T04:38:56.002Z,1.00
2018-02-04T04:41:24.422Z,1.10
2018-02-04T04:43:52.118Z,1.10
2018-02-04T04:46:19.779Z,1.20
2018-02-04T04:48:47.489Z,1.20
2018-02-04T04:51:15.163Z,1.40
2018-02-04T04:53:42.810Z,1.50
2018-02-04T04:56:10.509Z,1.40
2018-02-04T04:58:38.173Z,1.30
2018-02-04T05:01:05.867Z,1.40
2018-02-04T05:03:34.290Z,1.40
2018-02-04T05:06:01.999Z,1.40
2018-02-04T05:08:30.417Z,1.30
2018-02-04T05:10:58.114Z,1.30
2018-02-04T05:13:25.778Z,1.30
2018-02-04T05:15:53.469Z,1.50
2018-02-04T05:18:21.893Z,1.40
2018-02-04T05:20:49.590Z,1.40
2018-02-04T05:23:18.013Z,1.20
2018-02-04T05:25:45.707Z,1.20
2018-02-04T05:28:13.374Z,1.30
2018-02-04T05:30:41.066Z,1.30
2018-02-04T05:33:09.486Z,1.30
2018-02-04T05:35:37.192Z,1.20
2018-02-04T05:38:05.611Z,1.40
2018-02-04T05:40:33.309Z,1.30
2018-02-04T05:43:00.970Z,1.40
2018-02-04T05:45:28.689Z,1.30
2018-02-04T05:47:56.360Z,1.20
2018-02-04T05:50:24.094Z,1.40
2018-02-04T05:52:51.746Z,1.40
2018-02-04T05:55:19.482Z,1.40
2018-02-04T05:57:47.902Z,1.40
2018-02-04T06:00:15.639Z,1.40
2018-02-04T06:02:43.294Z,1.30
2018-02-04T06:05:11.753Z,1.40
2018-02-04T06:07:54.019Z,1.60
2018-02-04T06:10:24.148Z,1.60
2018-02-04T06:12:51.815Z,1.60
2018-02-04T06:15:19.522Z,1.40
2018-02-04T06:17:47.182Z,1.30
2018-02-04T06:20:14.939Z,1.30
2018-02-04T06:22:42.638Z,1.50
2018-02-04T06:25:10.387Z,1.40
2018-02-04T06:27:38.078Z,1.30
2018-02-04T06:30:07.149Z,1.30
2018-02-04T06:32:35.119Z,1.40
2018-02-04T06:35:03.635Z,1.50
2018-02-04T06:37:32.126Z,1.50
2018-02-04T06:40:00.613Z,1.30
2018-02-04T06:42:28.283Z,1.30
2018-02-04T06:44:56.053Z,1.20
2018-02-04T06:47:23.715Z,1.20
2018-02-04T06:49:51.414Z,1.30
2018-02-04T06:52:19.090Z,1.20
2018-02-04T06:54:47.553Z,1.30
2018-02-04T06:57:15.283Z,1.30
2018-02-04T06:59:42.986Z,1.20
2018-02-04T07:02:11.415Z,1.10
2018-02-04T07:04:39.159Z,1.10
2018-02-04T07:07:06.820Z,1.00
2018-02-04T07:09:34.518Z,1.10
2018-02-04T07:12:02.209Z,1.10
2018-02-04T07:14:30.680Z,0.90
2018-02-04T07:16:58.339Z,0.90
2018-02-04T07:19:26.798Z,0.70
2018-02-04T07:21:54.502Z,0.70
2018-02-04T07:24:22.153Z,0.60
2018-02-04T07:26:50.623Z,0.60
2018-02-04T07:29:19.042Z,0.70
2018-02-04T07:31:46.742Z,0.60
2018-02-04T07:34:14.398Z,0.70
2018-02-04T07:36:42.107Z,0.60
2018-02-04T07:39:09.764Z,0.60
2018-02-04T07:41:37.466Z,0.60
2018-02-04T07:44:05.115Z,0.70
2018-02-04T07:46:32.819Z,0.70
2018-02-04T07:49:01.278Z,0.70
2018-02-04T07:51:28.990Z,0.70
2018-02-04T07:53:56.637Z,0.70
2018-02-04T07:56:24.331Z,0.80
2018-02-04T07:58:51.987Z,0.80
2018-02-04T08:01:19.683Z,0.80
2018-02-04T08:03:47.338Z,0.80
2018-02-04T08:06:15.038Z,0.90
2018-02-04T08:08:42.686Z,0.80
2018-02-04T08:11:10.379Z,0.70
2018-02-04T08:13:38.048Z,0.80
2018-02-04T08:16:05.751Z,0.80
2018-02-04T08:18:34.170Z,0.80
2018-02-04T08:21:01.874Z,0.80
2018-02-04T08:23:30.342Z,1.00
2018-02-04T08:25:58.043Z,0.90
2018-02-04T08:28:25.695Z,1.00
2018-02-04T08:30:53.391Z,1.00
2018-02-04T08:33:21.056Z,0.90
2018-02-04T08:35:48.787Z,0.90
2018-02-04T08:38:16.451Z,0.80
2018-02-04T08:40:44.155Z,0.90
2018-02-04T08:43:11.828Z,0.70
2018-02-04T08:45:39.530Z,0.80
2018-02-04T08:48:07.217Z,0.70
2018-02-04T08:50:34.917Z,0.70
2018-02-04T08:53:03.352Z,0.90
2018-02-04T08:55:31.051Z,0.90
2018-02-04T08:57:58.706Z,0.90
2018-02-04T09:00:26.402Z,0.80
2018-02-04T09:02:54.055Z,0.90
2018-02-04T09:05:21.758Z,0.80
2018-02-04T09:07:49.415Z,0.70
2018-02-04T09:10:17.122Z,0.60
2018-02-04T09:12:45.538Z,0.60
2018-02-04T09:15:13.234Z,0.50
2018-02-04T09:17:40.897Z,0.70
2018-02-04T09:20:08.599Z,0.70
2018-02-04T09:22:36.630Z,1.00
2018-02-04T09:25:05.105Z,1.20
2018-02-04T09:27:32.758Z,1.10
2018-02-04T09:30:00.464Z,1.20
2018-02-04T09:32:28.127Z,1.10
2018-02-04T09:34:55.831Z,1.00
2018-02-04T09:37:23.491Z,1.20
2018-02-04T09:39:51.191Z,1.20
2018-02-04T09:42:18.891Z,1.30
2018-02-04T09:44:46.562Z,1.50
2018-02-04T09:47:14.261Z,1.40
2018-02-04T09:49:42.684Z,1.40
2018-02-04T09:52:10.426Z,1.40
2018-02-04T09:54:38.083Z,1.40
2018-02-04T09:57:05.787Z,1.40
2018-02-04T09:59:33.455Z,1.40
2018-02-04T10:02:01.172Z,1.40
2018-02-04T10:04:28.838Z,1.40
2018-02-04T10:06:56.542Z,1.40
2018-02-04T10:09:24.971Z,1.10
2018-02-04T10:11:52.686Z,1.10
2018-02-04T10:14:21.102Z,1.10
2018-02-04T10:16:48.799Z,1.10
2018-02-04T10:19:16.458Z,1.20
2018-02-04T10:21:44.163Z,1.10
2018-02-04T10:24:14.058Z,1.10
2018-02-04T10:26:45.154Z,1.10
2018-02-04T10:29:16.151Z,1.50
2018-02-04T10:31:45.956Z,1.40
2018-02-04T10:34:13.745Z,1.60
2018-02-04T10:36:43.935Z,1.60
2018-02-04T10:39:12.638Z,1.70
2018-02-04T10:41:41.202Z,1.50
2018-02-04T10:44:08.867Z,1.50
2018-02-04T10:46:36.594Z,1.60
2018-02-04T10:49:04.258Z,1.70
2018-02-04T10:51:38.357Z,1.80
2018-02-04T10:54:06.023Z,1.80
2018-02-04T10:56:33.720Z,1.60
2018-02-04T10:59:01.418Z,1.50
2018-02-04T11:01:29.115Z,1.50
2018-02-04T11:03:57.538Z,1.60
2018-02-04T11:06:25.237Z,1.50
2018-02-04T11:08:52.902Z,1.60
2018-02-04T11:11:21.371Z,1.60
2018-02-04T11:13:49.035Z,1.60
2018-02-04T11:16:19.354Z,1.30
2018-02-04T11:18:47.009Z,1.20
2018-02-04T11:21:14.698Z,1.40
2018-02-04T11:23:42.371Z,1.30
2018-02-04T11:26:10.129Z,1.30
2018-02-04T11:28:37.791Z,1.20
2018-02-04T11:31:17.194Z,1.30
2018-02-04T11:33:45.647Z,1.40
2018-02-04T11:36:13.362Z,1.30
2018-02-04T11:38:41.023Z,1.40
2018-02-04T11:41:08.785Z,1.60
2018-02-04T11:43:37.195Z,1.40
2018-02-04T11:46:05.706Z,1.40
2018-02-04T11:48:34.166Z,1.50
2018-02-04T11:51:01.862Z,1.50
2018-02-04T11:53:29.603Z,1.40
2018-02-04T11:55:58.108Z,1.40
2018-02-04T11:58:25.765Z,1.40
2018-02-04T12:00:53.502Z,1.40
2018-02-04T12:03:21.927Z,1.20
2018-02-04T12:05:49.647Z,1.20
2018-02-04T12:08:18.094Z,1.20
2018-02-04T12:10:45.786Z,1.20
2018-02-04T12:13:14.206Z,1.40
2018-02-04T12:15:41.902Z,1.40
2018-02-04T12:18:09.562Z,1.40
2018-02-04T12:20:37.255Z,1.40
2018-02-04T12:23:04.914Z,1.20
2018-02-04T12:25:32.603Z,1.10
2018-02-04T12:28:00.291Z,1.20
2018-02-04T12:30:27.951Z,1.30
2018-02-04T12:32:55.654Z,1.30
2018-02-04T12:35:23.343Z,1.40
2018-02-04T12:37:51.034Z,1.30
2018-02-04T12:40:18.692Z,1.30
2018-02-04T12:42:46.616Z,1.30
2018-02-04T12:45:14.271Z,1.30
2018-02-04T12:47:41.965Z,1.30
2018-02-04T12:50:09.635Z,1.20
2018-02-04T12:52:37.377Z,1.30
2018-02-04T12:55:05.837Z,1.50
2018-02-04T12:57:33.535Z,1.50
2018-02-04T13:00:01.195Z,1.60
2018-02-04T13:02:28.916Z,1.50
2018-02-04T13:04:56.566Z,1.60
2018-02-04T13:07:24.257Z,1.60
2018-02-04T13:09:51.918Z,1.50
2018-02-04T13:12:19.622Z,1.30
2018-02-04T13:14:48.030Z,1.40
2018-02-04T13:17:15.722Z,1.40
2018-02-04T13:19:43.386Z,1.40
2018-02-04T13:22:11.088Z,1.40
2018-02-04T13:24:38.754Z,1.40
2018-02-04T13:27:06.466Z,1.50
2018-02-04T13:29:34.156Z,1.60
2018-02-04T13:32:02.650Z,1.60
2018-02-04T13:34:30.308Z,1.60
2018-02-04T13:36:58.010Z,1.60
2018-02-04T13:39:25.663Z,1.50
2018-02-04T13:41:53.379Z,1.50
2018-02-04T13:44:21.031Z,1.20
2018-02-04T13:46:49.535Z,1.30
2018-02-04T13:49:17.194Z,1.30
2018-02-04T13:51:44.894Z,1.30
2018-02-04T13:54:12.554Z,1.10
2018-02-04T13:56:40.259Z,1.00
2018-02-04T13:59:07.946Z,1.00
2018-02-04T14:01:35.642Z,0.90
2018-02-04T14:04:03.295Z,0.80
2018-02-04T14:06:31.012Z,0.70
2018-02-04T14:08:58.682Z,0.80
2018-02-04T14:11:26.375Z,0.70
2018-02-04T14:13:54.038Z,0.60
2018-02-04T14:16:21.745Z,0.60
2018-02-04T14:18:49.403Z,0.60
2018-02-04T14:21:17.155Z,0.40
2018-02-04T14:23:44.843Z,0.40
2018-02-04T14:26:12.554Z,0.50
2018-02-04T14:28:40.975Z,0.50
2018-02-04T14:31:08.683Z,0.40
2018-02-04T14:33:36.420Z,0.50
2018-02-04T14:36:04.166Z,0.50
2018-02-04T14:38:31.822Z,0.50
2018-02-04T14:40:59.479Z,0.50
2018-02-04T14:43:27.191Z,0.50
2018-02-04T14:45:55.613Z,0.50
2018-02-04T14:48:23.376Z,0.50
2018-02-04T14:50:51.027Z,0.60
2018-02-04T14:53:18.772Z,0.60
2018-02-04T14:55:46.468Z,0.50
2018-02-04T14:58:14.168Z,0.50
2018-02-04T15:00:42.596Z,0.60
2018-02-04T15:03:10.295Z,0.50
2018-02-04T15:05:37.963Z,0.50
2018-02-04T15:08:06.505Z,0.50
2018-02-04T15:10:34.164Z,0.50
2018-02-04T15:13:01.866Z,0.60
2018-02-04T15:15:30.291Z,0.60
2018-02-04T15:17:57.995Z,0.60
2018-02-04T15:20:25.658Z,0.60
2018-02-04T15:22:54.133Z,0.50
2018-02-04T15:25:21.793Z,0.50
2018-02-04T15:27:49.495Z,0.60
2018-02-04T15:30:17.149Z,0.60
2018-02-04T15:32:44.863Z,0.70
2018-02-04T15:35:12.522Z,0.60
2018-02-04T15:37:40.220Z,0.50
2018-02-04T15:40:07.865Z,0.60
2018-02-04T15:42:36.333Z,0.70
2018-02-04T15:45:04.795Z,0.70
2018-02-04T15:47:32.495Z,0.70
2018-02-04T15:50:00.182Z,0.70
2018-02-04T15:52:27.894Z,0.70
2018-02-04T15:54:56.318Z,0.50
2018-02-04T15:57:24.010Z,0.50
2018-02-04T15:59:51.675Z,0.40
2018-02-04T16:02:19.378Z,0.40
2018-02-04T16:04:47.037Z,0.50
2018-02-04T16:07:14.906Z,0.50
2018-02-04T16:09:42.568Z,0.60
2018-02-04T16:12:10.266Z,0.60
2018-02-04T16:14:37.927Z,0.50
2018-02-04T16:17:05.635Z,0.60
2018-02-04T16:19:33.491Z,0.60
2018-02-04T16:22:01.215Z,0.50
2018-02-04T16:24:28.879Z,0.70
2018-02-04T16:26:56.651Z,0.50
2018-02-04T16:29:24.306Z,0.70
2018-02-04T16:31:52.011Z,0.60
2018-02-04T16:34:19.688Z,0.50
2018-02-04T16:36:47.391Z,0.60
2018-02-04T16:39:15.123Z,0.50
2018-02-04T16:41:42.851Z,0.50
2018-02-04T16:44:10.566Z,0.70
2018-02-04T16:46:38.275Z,0.50
2018-02-04T16:49:05.970Z,0.50
2018-02-04T16:51:33.689Z,0.60
2018-02-04T16:54:01.438Z,0.60
2018-02-04T16:56:31.126Z,0.60
2018-02-04T16:58:58.822Z,0.50
2018-02-04T17:01:26.488Z,0.50
2018-02-04T17:03:54.191Z,0.50
2018-02-04T17:06:21.854Z,0.60
2018-02-04T17:08:49.571Z,0.50
2018-02-04T17:11:17.234Z,0.50
2018-02-04T17:13:44.934Z,0.60
2018-02-04T17:16:12.597Z,0.60
2018-02-04T17:18:40.302Z,0.60
2018-02-04T17:21:07.975Z,0.60
2018-02-04T17:23:35.683Z,0.60
2018-02-04T17:26:04.111Z,0.70
2018-02-04T17:28:31.852Z,0.70
2018-02-04T17:30:59.598Z,0.80
2018-02-04T17:33:28.072Z,0.80
2018-02-04T17:35:56.567Z,0.90
2018-02-04T17:38:24.268Z,0.90
2018-02-04T17:40:52.826Z,0.90
2018-02-04T17:43:20.521Z,0.80
2018-02-04T17:45:48.573Z,0.80
2018-02-04T17:48:16.274Z,0.70
2018-02-04T17:50:44.743Z,0.60
2018-02-04T17:53:13.262Z,0.80
2018-02-04T17:55:41.206Z,0.80
2018-02-04T17:58:08.938Z,0.70
2018-02-04T18:00:36.597Z,0.80
2018-02-04T18:03:04.314Z,0.70
2018-02-04T18:05:32.013Z,0.60
2018-02-04T18:07:59.693Z,0.80
2018-02-04T18:10:28.115Z,0.90
2018-02-04T18:12:55.811Z,0.90
2018-02-04T18:15:23.463Z,0.80
2018-02-04T18:17:51.198Z,0.70
2018-02-04T18:20:18.854Z,0.80
2018-02-04T18:22:46.621Z,0.70
2018-02-04T18:25:14.282Z,0.70
2018-02-04T18:27:41.992Z,0.70
2018-02-04T18:30:10.420Z,0.60
2018-02-04T18:32:38.118Z,0.60
2018-02-04T18:35:05.787Z,0.70
2018-02-04T18:37:34.273Z,0.80
2018-02-04T18:40:02.700Z,0.80
2018-02-04T18:42:30.422Z,0.80
2018-02-04T18:44:58.114Z,0.80
2018-02-04T18:47:25.860Z,0.70
2018-02-04T18:49:53.589Z,0.60
2018-02-04T18:52:22.042Z,0.80
2018-02-04T18:54:49.703Z,0.90
2018-02-04T18:57:17.459Z,0.70
2018-02-04T18:59:45.122Z,0.60
2018-02-04T19:02:12.824Z,0.70
2018-02-04T19:04:40.494Z,0.70
2018-02-04T19:07:08.150Z,0.60
2018-02-04T19:09:35.842Z,0.70
2018-02-04T19:12:03.574Z,0.70
2018-02-04T19:14:31.270Z,0.70
2018-02-04T19:16:58.941Z,0.60
2018-02-04T19:19:26.655Z,0.60
2018-02-04T19:21:54.317Z,0.60
2018-02-04T19:24:22.011Z,0.60
2018-02-04T19:26:49.671Z,0.60
2018-02-04T19:29:17.672Z,0.40
2018-02-04T19:31:46.105Z,0.60
2018-02-04T19:34:13.794Z,0.50
2018-02-04T19:36:41.452Z,0.60
2018-02-04T19:39:09.155Z,0.50
2018-02-04T19:41:36.806Z,0.60
2018-02-04T19:44:04.515Z,0.60
2018-02-04T19:46:32.167Z,0.60
2018-02-04T19:48:59.863Z,0.60
2018-02-04T19:51:28.283Z,0.60
2018-02-04T19:53:55.999Z,0.60
2018-02-04T19:56:24.422Z,0.50
2018-02-04T19:58:52.111Z,0.50
2018-02-04T20:01:19.768Z,0.60
2018-02-04T20:03:48.087Z,0.60
2018-02-04T20:06:15.737Z,0.60
2018-02-04T20:08:44.202Z,0.50
2018-02-04T20:11:12.627Z,0.50
2018-02-04T20:13:40.330Z,0.50
2018-02-04T20:16:07.987Z,0.60
2018-02-04T20:18:35.707Z,0.50
2018-02-04T20:21:03.374Z,0.50
2018-02-04T20:23:31.076Z,0.50
2018-02-04T20:25:59.493Z,0.60
2018-02-04T20:28:27.187Z,0.50
2018-02-04T20:30:54.927Z,0.50
2018-02-04T20:33:23.514Z,0.50
2018-02-04T20:35:51.195Z,0.50
2018-02-04T20:38:29.085Z,0.40
2018-02-04T20:40:59.283Z,0.60
2018-02-04T20:43:27.006Z,0.50
2018-02-04T20:45:55.427Z,0.50
2018-02-04T20:48:23.130Z,0.50
2018-02-04T20:50:51.576Z,0.50
2018-02-04T20:53:19.270Z,0.50
2018-02-04T20:55:47.698Z,0.50
2018-02-04T20:58:15.412Z,0.50
2018-02-04T21:00:43.829Z,0.50
2018-02-04T21:03:11.577Z,0.50
2018-02-04T21:05:39.223Z,0.20
2018-02-04T21:08:06.938Z,0.30
2018-02-04T21:10:34.619Z,0.30
2018-02-04T21:13:02.379Z,0.40
2018-02-04T21:15:30.067Z,0.40
2018-02-04T21:17:57.770Z,0.50
2018-02-04T21:20:25.432Z,0.50
2018-02-04T21:22:53.190Z,0.50
2018-02-04T21:25:20.856Z,0.50
2018-02-04T21:27:48.511Z,0.60
2018-02-04T21:30:16.215Z,0.60
2018-02-04T21:32:44.670Z,0.40
2018-02-04T21:35:12.379Z,0.40
2018-02-04T21:37:40.046Z,0.50
2018-02-04T21:40:07.763Z,0.50
2018-02-04T21:42:36.191Z,0.50
2018-02-04T21:45:03.926Z,0.50
2018-02-04T21:47:31.594Z,0.60
2018-02-04T21:49:59.296Z,0.50
2018-02-04T21:52:26.963Z,0.60
2018-02-04T21:54:54.658Z,0.60
2018-02-04T21:57:22.378Z,0.50
2018-02-04T21:59:50.075Z,0.60
2018-02-04T22:02:18.490Z,0.60
2018-02-04T22:04:46.193Z,0.60
2018-02-04T22:07:14.618Z,0.50
2018-02-04T22:09:42.322Z,0.50
2018-02-04T22:12:09.982Z,0.50
2018-02-04T22:14:37.682Z,0.60
2018-02-04T22:17:05.390Z,0.50
2018-02-04T22:19:33.099Z,0.40
2018-02-04T22:22:00.793Z,0.50
2018-02-04T22:24:28.598Z,0.50
2018-02-04T22:26:57.083Z,0.40
2018-02-04T22:29:25.547Z,0.60
2018-02-04T22:31:53.198Z,0.60
2018-02-04T22:34:20.903Z,0.50
2018-02-04T22:36:48.559Z,0.40
2018-02-04T22:39:16.253Z,0.50
2018-02-04T22:41:43.914Z,0.50
2018-02-04T22:44:11.606Z,0.40
2018-02-04T22:46:40.035Z,0.40
2018-02-04T22:49:08.499Z,0.40
2018-02-04T22:51:36.188Z,0.40
2018-02-04T22:54:03.919Z,0.50
2018-02-04T22:56:31.570Z,0.40
2018-02-04T22:58:59.269Z,0.50
2018-02-04T23:01:26.926Z,0.50
2018-02-04T23:03:54.623Z,0.60
2018-02-04T23:06:23.044Z,0.50
2018-02-04T23:08:50.783Z,0.50
2018-02-04T23:11:18.443Z,0.40
2018-02-04T23:13:46.195Z,0.40
2018-02-04T23:16:13.857Z,0.50
2018-02-04T23:18:41.559Z,0.50
2018-02-04T23:21:09.214Z,0.50
2018-02-04T23:23:36.921Z,0.50
2018-02-04T23:26:05.348Z,0.40
2018-02-04T23:28:33.056Z,0.40
2018-02-04T23:31:01.480Z,0.40
2018-02-04T23:33:29.181Z,0.30
2018-02-04T23:35:56.862Z,0.40
2018-02-04T23:38:25.356Z,0.50
2018-02-04T23:40:53.014Z,0.50
2018-02-04T23:43:20.690Z,0.50
2018-02-04T23:45:48.387Z,0.60
2018-02-04T23:48:16.043Z,0.50
2018-02-04T23:50:43.760Z,0.30
2018-02-04T23:53:11.422Z,0.40
2018-02-04T23:55:39.121Z,0.40
2018-02-04T23:58:06.802Z,0.40
